SAS2689 ESSA-LIMC
Flight info
| Callsign | SAS2689 |
|---|---|
| Flight time | N/A |
| Altitude | 34000 |
| Route | NOSLI N850 ABAMA DCT MAKEL DCT TOLGI DCT BOMBI DCT GIGET DCT ABUKA DCT KRH DCT NATOR/N0449F350 DCT TRA DCT RIPUS DCT GERSA DCT SOSON DCT DEGAD Z424 BASGO/N0449F290 Z424 AKASU/N0382F190 Z424 RIXUV |
| Aircraft | A320/M-SDE3FGHIRWY/LB1 |
Departure
| Time | N/A |
|---|---|
| Airport | Stockholm-Arlanda Airport (ESSA) |
Arrival
| Time | 2026-05-07 18:27 |
|---|---|
| Airport | Milan Malpensa International Airport (LIMC) |
| Time | Latitude | Longitude | Altitude | Speed | Heading |
|---|---|---|---|---|---|
| 2026-05-07 17:29 | 50.12619 | 8.87740 | 34064 ft | 450 kts | 192° |
| 2026-05-07 17:30 | 50.05430 | 8.85550 | 34060 ft | 450 kts | 192° |
| 2026-05-07 17:30 | 49.99315 | 8.83684 | 34062 ft | 450 kts | 192° |
| 2026-05-07 17:31 | 49.93155 | 8.81833 | 34062 ft | 450 kts | 192° |
| 2026-05-07 17:31 | 49.87004 | 8.79989 | 34062 ft | 450 kts | 192° |
| 2026-05-07 17:32 | 49.80853 | 8.78140 | 34062 ft | 450 kts | 192° |
| 2026-05-07 17:32 | 49.74711 | 8.76300 | 34058 ft | 451 kts | 192° |
| 2026-05-07 17:33 | 49.68529 | 8.74452 | 34054 ft | 451 kts | 192° |
| 2026-05-07 17:33 | 49.62361 | 8.72611 | 34054 ft | 452 kts | 191° |
| 2026-05-07 17:34 | 49.59241 | 8.71964 | 34271 ft | 453 kts | 187° |
| 2026-05-07 17:34 | 49.56115 | 8.71433 | 34616 ft | 452 kts | 187° |
| 2026-05-07 17:34 | 49.52985 | 8.70954 | 34940 ft | 451 kts | 186° |
| 2026-05-07 17:34 | 49.49855 | 8.70502 | 35043 ft | 452 kts | 186° |
| 2026-05-07 17:35 | 49.43596 | 8.69599 | 35055 ft | 451 kts | 186° |
| 2026-05-07 17:35 | 49.37381 | 8.68666 | 35054 ft | 451 kts | 187° |
| 2026-05-07 17:36 | 49.31128 | 8.67708 | 35055 ft | 451 kts | 187° |
| 2026-05-07 17:36 | 49.24877 | 8.66739 | 35055 ft | 451 kts | 187° |
| 2026-05-07 17:37 | 49.18634 | 8.65787 | 35054 ft | 451 kts | 187° |
| 2026-05-07 17:37 | 49.12375 | 8.64840 | 35057 ft | 451 kts | 187° |
| 2026-05-07 17:38 | 49.05961 | 8.63862 | 35061 ft | 452 kts | 187° |
| 2026-05-07 17:38 | 48.99863 | 8.62936 | 35060 ft | 452 kts | 187° |
| 2026-05-07 17:39 | 48.93604 | 8.61992 | 35064 ft | 452 kts | 187° |
| 2026-05-07 17:39 | 48.87361 | 8.61059 | 35068 ft | 452 kts | 187° |
| 2026-05-07 17:40 | 48.81088 | 8.60116 | 35064 ft | 452 kts | 187° |
| 2026-05-07 17:40 | 48.74874 | 8.59179 | 35069 ft | 451 kts | 187° |
| 2026-05-07 17:41 | 48.68626 | 8.58252 | 35067 ft | 451 kts | 187° |
| 2026-05-07 17:41 | 48.62382 | 8.57334 | 35067 ft | 451 kts | 187° |
| 2026-05-07 17:42 | 48.56128 | 8.56412 | 35069 ft | 451 kts | 187° |
| 2026-05-07 17:42 | 48.49890 | 8.55485 | 35071 ft | 450 kts | 187° |
| 2026-05-07 17:43 | 48.43657 | 8.54553 | 35059 ft | 450 kts | 187° |
| 2026-05-07 17:43 | 48.37421 | 8.53632 | 35064 ft | 449 kts | 187° |
| 2026-05-07 17:44 | 48.31206 | 8.52722 | 35057 ft | 449 kts | 187° |
| 2026-05-07 17:44 | 48.24988 | 8.51806 | 35058 ft | 449 kts | 187° |
| 2026-05-07 17:45 | 48.18766 | 8.50899 | 35055 ft | 449 kts | 187° |
| 2026-05-07 17:45 | 48.12536 | 8.49995 | 35052 ft | 449 kts | 187° |
| 2026-05-07 17:46 | 48.06316 | 8.49091 | 35045 ft | 449 kts | 187° |
| 2026-05-07 17:46 | 48.00135 | 8.48188 | 35045 ft | 449 kts | 187° |
| 2026-05-07 17:47 | 47.93873 | 8.47280 | 35048 ft | 449 kts | 187° |
| 2026-05-07 17:47 | 47.87687 | 8.46389 | 35046 ft | 449 kts | 187° |
| 2026-05-07 17:48 | 47.81467 | 8.45492 | 35045 ft | 449 kts | 187° |
| 2026-05-07 17:48 | 47.75235 | 8.44599 | 35044 ft | 449 kts | 187° |
| 2026-05-07 17:49 | 47.69006 | 8.43833 | 35044 ft | 450 kts | 181° |
| 2026-05-07 17:49 | 47.62750 | 8.44605 | 35043 ft | 452 kts | 176° |
| 2026-05-07 17:50 | 47.56497 | 8.45546 | 35038 ft | 451 kts | 176° |
| 2026-05-07 17:50 | 47.50267 | 8.46465 | 35035 ft | 451 kts | 176° |
| 2026-05-07 17:51 | 47.44015 | 8.47375 | 35036 ft | 451 kts | 176° |
| 2026-05-07 17:51 | 47.37795 | 8.48281 | 35035 ft | 452 kts | 176° |
| 2026-05-07 17:52 | 47.31541 | 8.49194 | 35037 ft | 452 kts | 176° |
| 2026-05-07 17:52 | 47.25287 | 8.50094 | 35036 ft | 452 kts | 176° |
| 2026-05-07 17:53 | 47.19033 | 8.51004 | 35038 ft | 451 kts | 176° |
| 2026-05-07 17:53 | 47.12784 | 8.51907 | 35040 ft | 452 kts | 176° |
| 2026-05-07 17:54 | 47.06531 | 8.52823 | 35040 ft | 451 kts | 176° |
| 2026-05-07 17:54 | 47.00292 | 8.53739 | 35039 ft | 451 kts | 176° |
| 2026-05-07 17:55 | 46.94040 | 8.54643 | 35041 ft | 451 kts | 177° |
| 2026-05-07 17:55 | 46.87798 | 8.55533 | 35042 ft | 451 kts | 177° |
| 2026-05-07 17:56 | 46.81539 | 8.56423 | 34980 ft | 451 kts | 177° |
| 2026-05-07 17:56 | 46.78418 | 8.56867 | 34717 ft | 450 kts | 177° |
| 2026-05-07 17:56 | 46.75302 | 8.57311 | 34467 ft | 450 kts | 177° |
| 2026-05-07 17:57 | 46.73238 | 8.57606 | 33993 ft | 452 kts | 177° |
| 2026-05-07 17:57 | 46.70091 | 8.58056 | 33065 ft | 456 kts | 177° |
| 2026-05-07 17:57 | 46.66920 | 8.58512 | 32139 ft | 460 kts | 177° |
| 2026-05-07 17:57 | 46.63727 | 8.58973 | 31206 ft | 462 kts | 177° |
| 2026-05-07 17:58 | 46.60516 | 8.59434 | 30242 ft | 464 kts | 177° |
| 2026-05-07 17:58 | 46.57277 | 8.59893 | 29198 ft | 468 kts | 176° |
| 2026-05-07 17:58 | 46.54063 | 8.60348 | 28643 ft | 460 kts | 176° |
| 2026-05-07 17:58 | 46.50889 | 8.60800 | 27952 ft | 457 kts | 176° |
| 2026-05-07 17:59 | 46.47732 | 8.61108 | 27285 ft | 450 kts | 183° |
| 2026-05-07 17:59 | 46.44647 | 8.60680 | 26624 ft | 443 kts | 193° |
| 2026-05-07 17:59 | 46.41705 | 8.59493 | 25971 ft | 437 kts | 202° |
| 2026-05-07 17:59 | 46.38976 | 8.57634 | 25331 ft | 430 kts | 212° |
| 2026-05-07 18:00 | 46.36440 | 8.55366 | 24703 ft | 427 kts | 213° |
| 2026-05-07 18:00 | 46.33922 | 8.53107 | 24081 ft | 423 kts | 213° |
| 2026-05-07 18:00 | 46.31460 | 8.50919 | 23458 ft | 420 kts | 211° |
| 2026-05-07 18:00 | 46.28829 | 8.49133 | 22842 ft | 418 kts | 200° |
| 2026-05-07 18:01 | 46.26017 | 8.48103 | 22232 ft | 416 kts | 189° |
| 2026-05-07 18:01 | 46.23139 | 8.47854 | 21645 ft | 414 kts | 179° |
| 2026-05-07 18:01 | 46.20274 | 8.48218 | 21054 ft | 411 kts | 175° |
| 2026-05-07 18:01 | 46.17431 | 8.48631 | 20502 ft | 408 kts | 175° |
| 2026-05-07 18:02 | 46.11821 | 8.49502 | 19441 ft | 403 kts | 171° |
| 2026-05-07 18:02 | 46.09116 | 8.50540 | 18944 ft | 401 kts | 161° |
| 2026-05-07 18:02 | 46.06510 | 8.51948 | 18408 ft | 400 kts | 160° |
| 2026-05-07 18:03 | 46.03912 | 8.53359 | 17869 ft | 398 kts | 160° |
| 2026-05-07 18:03 | 46.01326 | 8.54755 | 17319 ft | 396 kts | 160° |
| 2026-05-07 18:03 | 45.98746 | 8.56138 | 16773 ft | 394 kts | 160° |
| 2026-05-07 18:03 | 45.96201 | 8.57500 | 16211 ft | 391 kts | 160° |
| 2026-05-07 18:04 | 45.93663 | 8.58863 | 15659 ft | 388 kts | 160° |
| 2026-05-07 18:04 | 45.91144 | 8.60218 | 15076 ft | 385 kts | 160° |
| 2026-05-07 18:04 | 45.88608 | 8.61390 | 14512 ft | 381 kts | 166° |
| 2026-05-07 18:04 | 45.86049 | 8.62323 | 13953 ft | 377 kts | 166° |
| 2026-05-07 18:05 | 45.83519 | 8.63235 | 13402 ft | 373 kts | 167° |
| 2026-05-07 18:05 | 45.80961 | 8.63682 | 12856 ft | 368 kts | 179° |
| 2026-05-07 18:05 | 45.78413 | 8.63734 | 12302 ft | 364 kts | 181° |
| 2026-05-07 18:05 | 45.75946 | 8.63359 | 11751 ft | 352 kts | 188° |
| 2026-05-07 18:06 | 45.73579 | 8.62881 | 11224 ft | 336 kts | 188° |
| 2026-05-07 18:06 | 45.71342 | 8.62429 | 10688 ft | 323 kts | 188° |
| 2026-05-07 18:06 | 45.69146 | 8.61985 | 10166 ft | 313 kts | 188° |
| 2026-05-07 18:06 | 45.67051 | 8.61563 | 9913 ft | 295 kts | 188° |
| 2026-05-07 18:07 | 45.65095 | 8.61171 | 9806 ft | 274 kts | 188° |
| 2026-05-07 18:07 | 45.63229 | 8.60795 | 9689 ft | 269 kts | 188° |
| 2026-05-07 18:07 | 45.61383 | 8.60421 | 9560 ft | 268 kts | 188° |
| 2026-05-07 18:07 | 45.59542 | 8.60045 | 9439 ft | 267 kts | 188° |
| 2026-05-07 18:08 | 45.57692 | 8.59874 | 9329 ft | 266 kts | 176° |
| 2026-05-07 18:08 | 45.55867 | 8.60288 | 9212 ft | 266 kts | 169° |
| 2026-05-07 18:08 | 45.54055 | 8.60796 | 9080 ft | 265 kts | 169° |
| 2026-05-07 18:08 | 45.52242 | 8.61302 | 8961 ft | 265 kts | 169° |
| 2026-05-07 18:09 | 45.50435 | 8.61808 | 8834 ft | 264 kts | 169° |
| 2026-05-07 18:09 | 45.48637 | 8.62309 | 8598 ft | 264 kts | 169° |
| 2026-05-07 18:09 | 45.46825 | 8.62812 | 8264 ft | 265 kts | 169° |
| 2026-05-07 18:09 | 45.45013 | 8.63309 | 7914 ft | 266 kts | 169° |
| 2026-05-07 18:10 | 45.43210 | 8.63804 | 7630 ft | 264 kts | 169° |
| 2026-05-07 18:10 | 45.41408 | 8.64299 | 7341 ft | 262 kts | 169° |
| 2026-05-07 18:10 | 45.39615 | 8.64793 | 7032 ft | 261 kts | 169° |
| 2026-05-07 18:10 | 45.37855 | 8.65284 | 6880 ft | 254 kts | 169° |
| 2026-05-07 18:11 | 45.36163 | 8.65755 | 6676 ft | 249 kts | 169° |
| 2026-05-07 18:11 | 45.34466 | 8.66222 | 6386 ft | 247 kts | 169° |
| 2026-05-07 18:11 | 45.32780 | 8.66684 | 6079 ft | 247 kts | 169° |
| 2026-05-07 18:11 | 45.31114 | 8.67144 | 5920 ft | 240 kts | 169° |
| 2026-05-07 18:12 | 45.29471 | 8.67595 | 5870 ft | 240 kts | 169° |
| 2026-05-07 18:12 | 45.27829 | 8.68047 | 5767 ft | 240 kts | 169° |
| 2026-05-07 18:12 | 45.26190 | 8.68495 | 5643 ft | 240 kts | 169° |
| 2026-05-07 18:12 | 45.24554 | 8.68941 | 5517 ft | 240 kts | 169° |
| 2026-05-07 18:13 | 45.22920 | 8.69388 | 5389 ft | 239 kts | 169° |
| 2026-05-07 18:13 | 45.21288 | 8.69833 | 5265 ft | 238 kts | 169° |
| 2026-05-07 18:13 | 45.19664 | 8.70274 | 5140 ft | 237 kts | 169° |
| 2026-05-07 18:13 | 45.18076 | 8.70709 | 5012 ft | 228 kts | 169° |
| 2026-05-07 18:14 | 45.16525 | 8.71134 | 4887 ft | 225 kts | 169° |
| 2026-05-07 18:14 | 45.15015 | 8.71548 | 4765 ft | 216 kts | 169° |
| 2026-05-07 18:14 | 45.13564 | 8.71951 | 4648 ft | 207 kts | 169° |
| 2026-05-07 18:14 | 45.12239 | 8.72541 | 4553 ft | 196 kts | 149° |
| 2026-05-07 18:15 | 45.11294 | 8.73901 | 4412 ft | 194 kts | 119° |
| 2026-05-07 18:15 | 45.10949 | 8.75714 | 4288 ft | 194 kts | 89° |
| 2026-05-07 18:15 | 45.11158 | 8.77605 | 4159 ft | 194 kts | 79° |
| 2026-05-07 18:15 | 45.11419 | 8.79478 | 4073 ft | 194 kts | 79° |
| 2026-05-07 18:16 | 45.11675 | 8.81352 | 4002 ft | 193 kts | 79° |
| 2026-05-07 18:16 | 45.11932 | 8.83199 | 4015 ft | 194 kts | 76° |
| 2026-05-07 18:16 | 45.12576 | 8.84886 | 4016 ft | 195 kts | 45° |
| 2026-05-07 18:16 | 45.13697 | 8.85875 | 4003 ft | 194 kts | 16° |
| 2026-05-07 18:17 | 45.15062 | 8.85976 | 3999 ft | 198 kts | 349° |
| 2026-05-07 18:17 | 45.16401 | 8.85609 | 3998 ft | 195 kts | 348° |
| 2026-05-07 18:17 | 45.17731 | 8.85247 | 4000 ft | 194 kts | 348° |
| 2026-05-07 18:17 | 45.19059 | 8.84886 | 3998 ft | 194 kts | 349° |
| 2026-05-07 18:18 | 45.20386 | 8.84522 | 4002 ft | 195 kts | 348° |
| 2026-05-07 18:18 | 45.21713 | 8.84158 | 4001 ft | 194 kts | 349° |
| 2026-05-07 18:18 | 45.23042 | 8.83794 | 4012 ft | 194 kts | 348° |
| 2026-05-07 18:18 | 45.24372 | 8.83429 | 4004 ft | 194 kts | 348° |
| 2026-05-07 18:19 | 45.25701 | 8.83067 | 4011 ft | 194 kts | 348° |
| 2026-05-07 18:19 | 45.27032 | 8.82705 | 4014 ft | 194 kts | 348° |
| 2026-05-07 18:19 | 45.28358 | 8.82343 | 4018 ft | 194 kts | 349° |
| 2026-05-07 18:19 | 45.29686 | 8.81981 | 4017 ft | 194 kts | 348° |
| 2026-05-07 18:20 | 45.31013 | 8.81619 | 4017 ft | 194 kts | 348° |
| 2026-05-07 18:20 | 45.32344 | 8.81257 | 4017 ft | 194 kts | 349° |
| 2026-05-07 18:20 | 45.33673 | 8.80895 | 4008 ft | 194 kts | 349° |
| 2026-05-07 18:20 | 45.35009 | 8.80607 | 3998 ft | 194 kts | 359° |
| 2026-05-07 18:21 | 45.36361 | 8.80550 | 4017 ft | 195 kts | 354° |
| 2026-05-07 18:21 | 45.37701 | 8.80281 | 3976 ft | 195 kts | 350° |
| 2026-05-07 18:21 | 45.39013 | 8.79945 | 3864 ft | 194 kts | 349° |
| 2026-05-07 18:21 | 45.40335 | 8.79587 | 3751 ft | 193 kts | 349° |
| 2026-05-07 18:22 | 45.41660 | 8.79225 | 3657 ft | 193 kts | 349° |
| 2026-05-07 18:22 | 45.42549 | 8.78981 | 3587 ft | 193 kts | 349° |
| 2026-05-07 18:22 | 45.44309 | 8.78499 | 3453 ft | 192 kts | 349° |
| 2026-05-07 18:22 | 45.45606 | 8.78144 | 3355 ft | 192 kts | 349° |
| 2026-05-07 18:23 | 45.46920 | 8.77783 | 3246 ft | 192 kts | 349° |
| 2026-05-07 18:23 | 45.48231 | 8.77423 | 3150 ft | 190 kts | 349° |
| 2026-05-07 18:23 | 45.49474 | 8.77081 | 3049 ft | 177 kts | 349° |
| 2026-05-07 18:23 | 45.50662 | 8.76755 | 2869 ft | 172 kts | 349° |
| 2026-05-07 18:24 | 45.51826 | 8.76435 | 2655 ft | 170 kts | 349° |
| 2026-05-07 18:24 | 45.52975 | 8.76121 | 2422 ft | 162 kts | 348° |
| 2026-05-07 18:24 | 45.54038 | 8.75828 | 2217 ft | 152 kts | 348° |
| 2026-05-07 18:24 | 45.55062 | 8.75546 | 2017 ft | 148 kts | 349° |
| 2026-05-07 18:25 | 45.56073 | 8.75267 | 1829 ft | 148 kts | 348° |
| 2026-05-07 18:25 | 45.57077 | 8.74990 | 1633 ft | 147 kts | 348° |
| 2026-05-07 18:25 | 45.58078 | 8.74714 | 1442 ft | 146 kts | 348° |
| 2026-05-07 18:25 | 45.59075 | 8.74439 | 1248 ft | 146 kts | 348° |
| 2026-05-07 18:26 | 45.60069 | 8.74166 | 1067 ft | 145 kts | 348° |
| 2026-05-07 18:26 | 45.61058 | 8.73893 | 889 ft | 144 kts | 348° |
| 2026-05-07 18:26 | 45.62039 | 8.73619 | 753 ft | 137 kts | 349° |
| 2026-05-07 18:26 | 45.62841 | 8.73398 | 744 ft | 93 kts | 349° |
| 2026-05-07 18:27 | 45.63313 | 8.73268 | 744 ft | 49 kts | 348° |
| 2026-05-07 18:27 | 45.63608 | 8.73174 | 747 ft | 37 kts | 340° |
| 2026-05-07 18:27 | 45.63764 | 8.73002 | 748 ft | 24 kts | 310° |
| 2026-05-07 18:27 | 45.63828 | 8.72887 | 749 ft | 20 kts | 306° |
| 2026-05-07 18:28 | 45.63939 | 8.72655 | 750 ft | 21 kts | 302° |
| 2026-05-07 18:28 | 45.63947 | 8.72478 | 749 ft | 19 kts | 259° |
| 2026-05-07 18:28 | 45.63920 | 8.72284 | 749 ft | 21 kts | 258° |
| 2026-05-07 18:28 | 45.63912 | 8.72059 | 746 ft | 23 kts | 266° |
| 2026-05-07 18:29 | 45.63888 | 8.71879 | 750 ft | 16 kts | 243° |
| 2026-05-07 18:29 | 45.63788 | 8.71829 | 749 ft | 18 kts | 169° |
| 2026-05-07 18:29 | 45.63660 | 8.71861 | 748 ft | 20 kts | 168° |
| 2026-05-07 18:29 | 45.63518 | 8.71901 | 748 ft | 22 kts | 169° |
| 2026-05-07 18:30 | 45.63368 | 8.71945 | 750 ft | 21 kts | 169° |
| 2026-05-07 18:30 | 45.63228 | 8.71982 | 748 ft | 20 kts | 169° |
| 2026-05-07 18:30 | 45.63083 | 8.72024 | 749 ft | 22 kts | 169° |
| 2026-05-07 18:30 | 45.62930 | 8.72065 | 750 ft | 23 kts | 168° |
| 2026-05-07 18:31 | 45.62770 | 8.72110 | 751 ft | 21 kts | 168° |
| 2026-05-07 18:31 | 45.62684 | 8.72069 | 748 ft | 13 kts | 249° |
| 2026-05-07 18:31 | 45.62664 | 8.71932 | 748 ft | 15 kts | 259° |
| 2026-05-07 18:31 | 45.62643 | 8.71780 | 751 ft | 16 kts | 259° |
| 2026-05-07 18:32 | 45.62628 | 8.71668 | 750 ft | 8 kts | 259° |
| 2026-05-07 18:32 | 45.62619 | 8.71604 | 753 ft | 3 kts | 258° |
| 2026-05-07 18:32 | 45.62602 | 8.71588 | 753 ft | 4 kts | 187° |
| 2026-05-07 18:32 | 45.62568 | 8.71597 | 753 ft | 6 kts | 169° |
| 2026-05-07 18:33 | 45.62538 | 8.71605 | 753 ft | 0 kts | 168° |
| 2026-05-07 18:36 | 45.62538 | 8.71606 | 753 ft | 0 kts | 168° |